createdAt,value
2019-02-26T00:00:47.302Z,13.45
2019-02-26T00:03:14.506Z,12.90
2019-02-26T00:05:41.547Z,14.63
2019-02-26T00:08:08.583Z,12.30
2019-02-26T00:10:38.508Z,13.48
2019-02-26T00:13:04.588Z,14.18
2019-02-26T00:15:35.576Z,14.18
2019-02-26T00:18:00.690Z,13.72
2019-02-26T00:20:29.649Z,16.87
2019-02-26T00:22:57.626Z,16.50
2019-02-26T00:25:25.673Z,17.37
2019-02-26T00:27:54.635Z,16.35
2019-02-26T00:30:21.638Z,14.70
2019-02-26T00:32:48.694Z,13.90
2019-02-26T00:35:16.502Z,14.65
2019-02-26T00:37:46.474Z,14.98
2019-02-26T00:40:14.534Z,15.95
2019-02-26T00:42:42.582Z,14.85
2019-02-26T00:45:09.694Z,15.45
2019-02-26T00:47:38.704Z,14.45
2019-02-26T00:50:07.384Z,15.25
2019-02-26T00:52:37.038Z,14.35
2019-02-26T00:55:05.395Z,14.25
2019-02-26T00:57:33.965Z,13.93
2019-02-26T01:00:03.397Z,13.25
2019-02-26T01:02:31.227Z,13.88
2019-02-26T01:04:58.285Z,13.35
2019-02-26T01:07:26.115Z,13.40
2019-02-26T01:09:55.209Z,12.50
2019-02-26T01:12:23.222Z,13.90
2019-02-26T01:14:50.387Z,12.00
2019-02-26T01:17:18.816Z,12.13
2019-02-26T01:19:46.054Z,12.50
2019-02-26T01:22:13.104Z,13.15
2019-02-26T01:24:40.158Z,11.68
2019-02-26T01:27:07.215Z,11.20
2019-02-26T01:29:34.253Z,14.00
2019-02-26T01:32:02.207Z,12.37
2019-02-26T01:34:29.353Z,12.50
2019-02-26T01:36:56.404Z,11.63
2019-02-26T01:39:23.487Z,12.53
2019-02-26T01:41:53.195Z,10.93
2019-02-26T01:44:19.492Z,12.33
2019-02-26T01:46:46.549Z,12.75
2019-02-26T01:49:13.748Z,10.48
2019-02-26T01:51:42.728Z,10.78
2019-02-26T01:54:11.768Z,12.28
2019-02-26T01:56:38.773Z,10.70
2019-02-26T01:59:05.835Z,12.05
2019-02-26T02:01:32.918Z,10.30
2019-02-26T02:04:00.008Z,10.88
2019-02-26T02:06:27.062Z,11.00
2019-02-26T02:08:55.745Z,9.95
2019-02-26T02:11:23.874Z,10.60
2019-02-26T02:13:51.979Z,10.15
2019-02-26T02:16:19.043Z,11.00
2019-02-26T02:18:48.379Z,9.48
2019-02-26T02:21:15.087Z,9.93
2019-02-26T02:23:43.856Z,10.25
2019-02-26T02:26:13.224Z,10.88
2019-02-26T02:28:40.083Z,9.75
2019-02-26T02:31:07.155Z,9.50
2019-02-26T02:33:35.419Z,9.65
2019-02-26T02:36:03.166Z,9.73
2019-02-26T02:38:30.205Z,10.25
2019-02-26T02:40:57.286Z,10.08
2019-02-26T02:43:24.349Z,9.50
2019-02-26T02:45:53.119Z,9.78
2019-02-26T02:48:20.316Z,9.98
2019-02-26T02:50:47.350Z,10.75
2019-02-26T02:53:14.424Z,9.30
2019-02-26T02:55:44.281Z,10.32
2019-02-26T02:58:13.081Z,9.73
2019-02-26T03:00:39.376Z,9.25
2019-02-26T03:03:06.449Z,9.95
2019-02-26T03:05:35.130Z,11.65
2019-02-26T03:08:02.480Z,9.93
2019-02-26T03:10:33.535Z,11.00
2019-02-26T03:13:00.416Z,10.43
2019-02-26T03:15:29.453Z,10.43
2019-02-26T03:17:56.343Z,9.75
2019-02-26T03:20:24.743Z,9.43
2019-02-26T03:22:52.361Z,10.03
2019-02-26T03:25:23.054Z,9.70
2019-02-26T03:27:48.350Z,9.40
2019-02-26T03:30:26.086Z,9.00
2019-02-26T03:32:47.301Z,10.60
2019-02-26T03:35:16.688Z,8.90
2019-02-26T03:37:43.770Z,9.40
2019-02-26T03:40:11.023Z,9.55
2019-02-26T03:42:39.038Z,10.10
2019-02-26T03:45:08.491Z,9.78
2019-02-26T03:47:35.548Z,10.48
2019-02-26T03:50:02.825Z,10.95
2019-02-26T03:52:32.143Z,10.63
2019-02-26T03:54:58.826Z,16.55
2019-02-26T03:57:26.060Z,24.95
2019-02-26T03:59:53.125Z,17.10
2019-02-26T04:02:23.319Z,11.63
2019-02-26T04:04:54.037Z,10.82
2019-02-26T04:07:18.064Z,9.83
2019-02-26T04:09:47.289Z,10.98
2019-02-26T04:12:15.412Z,9.90
2019-02-26T04:14:43.058Z,10.10
2019-02-26T04:17:10.086Z,10.32
2019-02-26T04:19:37.119Z,11.05
2019-02-26T04:22:49.876Z,10.00
2019-02-26T04:25:38.246Z,10.20
2019-02-26T04:28:13.816Z,12.10
2019-02-26T04:31:46.414Z,9.58
2019-02-26T04:34:48.606Z,9.90
2019-02-26T04:37:53.132Z,11.40
2019-02-26T04:41:03.085Z,12.20
2019-02-26T04:44:03.809Z,10.38
2019-02-26T04:46:57.182Z,10.00
2019-02-26T04:49:27.379Z,10.38
2019-02-26T04:51:54.266Z,9.20
2019-02-26T04:54:24.291Z,8.85
2019-02-26T04:56:51.002Z,9.58
2019-02-26T04:59:18.189Z,11.20
2019-02-26T05:01:47.215Z,10.25
2019-02-26T05:04:14.418Z,10.40
2019-02-26T05:06:41.479Z,10.23
2019-02-26T05:09:10.512Z,12.03
2019-02-26T05:11:40.601Z,10.48
2019-02-26T05:14:07.207Z,10.85
2019-02-26T05:16:37.796Z,10.40
2019-02-26T05:19:04.365Z,9.48
2019-02-26T05:21:34.892Z,9.33
2019-02-26T05:24:02.903Z,9.88
2019-02-26T05:26:30.319Z,13.05
2019-02-26T05:28:57.592Z,10.35
2019-02-26T05:31:24.654Z,11.18
2019-02-26T05:33:54.223Z,10.63
2019-02-26T05:36:20.688Z,10.48
2019-02-26T05:38:49.379Z,10.18
2019-02-26T05:41:16.698Z,9.60
2019-02-26T05:43:49.291Z,9.10
2019-02-26T05:46:12.705Z,8.90
2019-02-26T05:48:40.696Z,10.23
2019-02-26T05:51:09.349Z,9.13
2019-02-26T05:53:37.698Z,9.60
2019-02-26T05:56:04.763Z,9.83
2019-02-26T05:58:33.613Z,9.93
2019-02-26T06:01:00.758Z,8.90
2019-02-26T06:03:27.818Z,9.18
2019-02-26T06:05:57.293Z,10.32
2019-02-26T06:08:26.698Z,8.20
2019-02-26T06:10:52.844Z,8.93
2019-02-26T06:13:19.906Z,9.43
2019-02-26T06:15:46.958Z,9.13
2019-02-26T06:18:14.020Z,9.23
2019-02-26T06:20:41.060Z,9.00
2019-02-26T06:23:08.138Z,10.00
2019-02-26T06:25:35.187Z,8.75
2019-02-26T06:28:06.680Z,8.75
2019-02-26T06:30:31.231Z,11.05
2019-02-26T06:33:02.025Z,9.95
2019-02-26T06:35:27.256Z,8.60
2019-02-26T06:37:54.300Z,7.25
2019-02-26T06:40:21.322Z,7.80
2019-02-26T06:42:48.377Z,6.20
2019-02-26T06:45:16.537Z,7.58
2019-02-26T06:47:45.654Z,12.05
2019-02-26T06:50:13.815Z,8.63
2019-02-26T06:52:43.013Z,7.65
2019-02-26T06:55:10.887Z,8.13
2019-02-26T06:57:39.170Z,10.25
2019-02-26T07:00:09.339Z,8.55
2019-02-26T07:02:36.367Z,7.85
2019-02-26T07:05:03.751Z,6.47
2019-02-26T07:07:30.817Z,6.00
2019-02-26T07:09:58.244Z,5.72
2019-02-26T07:12:26.493Z,6.85
2019-02-26T07:14:55.473Z,5.75
2019-02-26T07:17:22.560Z,6.65
2019-02-26T07:19:51.239Z,5.75
2019-02-26T07:22:18.535Z,6.92
2019-02-26T07:24:48.314Z,6.10
2019-02-26T07:27:14.499Z,5.35
2019-02-26T07:29:42.882Z,5.80
2019-02-26T07:32:12.297Z,6.35
2019-02-26T07:34:40.435Z,5.50
2019-02-26T07:37:09.310Z,6.30
2019-02-26T07:39:37.335Z,7.50
2019-02-26T07:42:04.416Z,8.53
2019-02-26T07:44:31.460Z,7.37
2019-02-26T07:47:00.626Z,6.50
2019-02-26T07:49:27.454Z,6.47
2019-02-26T07:51:56.087Z,7.12
2019-02-26T07:54:23.438Z,6.47
2019-02-26T07:56:52.608Z,6.62
2019-02-26T07:59:27.387Z,3.98
2019-02-26T08:01:49.751Z,6.20
2019-02-26T08:04:18.397Z,6.60
2019-02-26T08:06:45.588Z,6.10
2019-02-26T08:09:14.537Z,6.12
2019-02-26T08:11:43.792Z,7.00
2019-02-26T08:14:10.714Z,6.00
2019-02-26T08:16:37.773Z,5.60
2019-02-26T08:19:04.820Z,4.80
2019-02-26T08:21:31.884Z,4.28
2019-02-26T08:23:58.910Z,4.70
2019-02-26T08:26:26.734Z,4.35
2019-02-26T08:28:53.844Z,3.30
2019-02-26T08:31:23.117Z,4.25
2019-02-26T08:33:51.709Z,4.30
2019-02-26T08:36:18.746Z,3.60
2019-02-26T08:38:45.830Z,4.65
2019-02-26T08:41:12.864Z,4.20
2019-02-26T08:43:42.114Z,3.80
2019-02-26T08:46:10.022Z,3.20
2019-02-26T08:48:39.454Z,3.75
2019-02-26T08:51:09.031Z,4.60
2019-02-26T08:53:35.785Z,4.70
2019-02-26T08:56:04.061Z,4.83
2019-02-26T08:58:31.198Z,3.98
2019-02-26T09:00:58.243Z,4.60
2019-02-26T09:03:25.285Z,4.70
2019-02-26T09:05:53.923Z,4.20
2019-02-26T09:08:21.310Z,3.75
2019-02-26T09:10:48.664Z,3.85
2019-02-26T09:13:16.461Z,3.67
2019-02-26T09:15:44.668Z,3.90
2019-02-26T09:18:11.703Z,3.67
2019-02-26T09:20:38.749Z,3.75
2019-02-26T09:23:05.924Z,3.95
2019-02-26T09:25:33.990Z,4.00
2019-02-26T09:28:01.169Z,4.60
2019-02-26T09:30:30.908Z,4.05
2019-02-26T09:32:59.072Z,5.20
2019-02-26T09:35:28.855Z,5.22
2019-02-26T09:37:57.778Z,4.20
2019-02-26T09:40:26.605Z,4.10
2019-02-26T09:42:55.096Z,4.22
2019-02-26T09:45:25.380Z,4.37
2019-02-26T09:47:54.323Z,4.45
2019-02-26T09:50:22.561Z,5.05
2019-02-26T09:52:50.812Z,4.87
2019-02-26T09:55:20.799Z,4.80
2019-02-26T09:57:47.851Z,5.10
2019-02-26T10:00:16.977Z,4.85
2019-02-26T10:02:45.217Z,5.25
2019-02-26T10:05:15.856Z,5.40
2019-02-26T10:07:42.726Z,5.80
2019-02-26T10:10:14.024Z,5.63
2019-02-26T10:12:40.727Z,5.10
2019-02-26T10:15:08.167Z,4.90
2019-02-26T10:17:37.560Z,5.27
2019-02-26T10:20:09.172Z,6.03
2019-02-26T10:22:36.316Z,5.37
2019-02-26T10:25:04.749Z,5.10
2019-02-26T10:27:35.760Z,5.20
2019-02-26T10:30:02.846Z,5.73
2019-02-26T10:32:29.702Z,5.53
2019-02-26T10:34:56.747Z,6.00
2019-02-26T10:37:23.811Z,5.43
2019-02-26T10:39:52.244Z,5.80
2019-02-26T10:42:19.803Z,5.07
2019-02-26T10:44:46.875Z,5.00
2019-02-26T10:47:13.937Z,5.17
2019-02-26T10:49:41.019Z,5.47
2019-02-26T10:52:10.873Z,4.50
2019-02-26T10:54:40.348Z,5.63
2019-02-26T10:57:07.488Z,5.60
2019-02-26T10:59:34.939Z,5.20
2019-02-26T11:02:03.146Z,5.17
2019-02-26T11:04:34.817Z,5.13
2019-02-26T11:07:01.684Z,5.00
2019-02-26T11:09:29.892Z,4.70
2019-02-26T11:11:58.417Z,4.50
2019-02-26T11:14:26.299Z,4.70
2019-02-26T11:16:53.364Z,5.97
2019-02-26T11:19:20.424Z,5.17
2019-02-26T11:21:50.034Z,4.70
2019-02-26T11:24:17.005Z,4.83
2019-02-26T11:26:44.087Z,4.50
2019-02-26T11:29:11.141Z,4.50
2019-02-26T11:31:39.626Z,4.83
2019-02-26T11:34:10.257Z,4.83
2019-02-26T11:36:38.367Z,4.27
2019-02-26T11:39:06.913Z,4.80
2019-02-26T11:41:35.919Z,3.50
2019-02-26T11:44:07.348Z,4.10
2019-02-26T11:46:34.311Z,4.70
2019-02-26T11:49:00.989Z,5.17
2019-02-26T11:51:36.793Z,5.93
2019-02-26T11:53:56.997Z,5.30
2019-02-26T11:56:25.777Z,4.73
2019-02-26T11:58:53.029Z,4.50
2019-02-26T12:01:20.107Z,5.13
2019-02-26T12:03:47.151Z,4.83
2019-02-26T12:06:14.243Z,5.10
2019-02-26T12:08:43.114Z,4.30
2019-02-26T12:11:16.518Z,4.80
2019-02-26T12:13:40.093Z,4.70
2019-02-26T12:16:08.235Z,5.33
2019-02-26T12:18:36.832Z,4.60
2019-02-26T12:21:05.961Z,4.70
2019-02-26T12:23:34.420Z,4.40
2019-02-26T12:26:03.938Z,5.33
2019-02-26T12:28:34.164Z,5.03
2019-02-26T12:31:01.378Z,4.90
2019-02-26T12:33:32.324Z,5.37
2019-02-26T12:35:59.532Z,5.10
2019-02-26T12:38:26.916Z,5.47
2019-02-26T12:40:53.977Z,5.20
2019-02-26T12:43:21.021Z,5.47
2019-02-26T12:45:48.146Z,5.63
2019-02-26T12:48:19.150Z,5.10
2019-02-26T12:50:44.225Z,5.37
2019-02-26T12:53:12.622Z,5.27
2019-02-26T12:55:42.155Z,5.33
2019-02-26T12:58:10.648Z,5.50
2019-02-26T13:00:41.290Z,4.97
2019-02-26T13:03:09.322Z,5.57
2019-02-26T13:05:38.415Z,5.53
2019-02-26T13:08:06.154Z,5.83
2019-02-26T13:10:33.954Z,6.00
2019-02-26T13:13:03.945Z,5.43
2019-02-26T13:15:30.023Z,6.47
2019-02-26T13:17:57.093Z,6.07
2019-02-26T13:20:24.176Z,5.70
2019-02-26T13:22:56.446Z,6.40
2019-02-26T13:25:21.580Z,5.80
2019-02-26T13:27:49.164Z,6.37
2019-02-26T13:30:18.195Z,6.60
2019-02-26T13:33:04.759Z,5.73
2019-02-26T13:35:14.203Z,6.70
2019-02-26T13:37:42.435Z,7.17
2019-02-26T13:40:12.011Z,6.30
2019-02-26T13:42:39.085Z,6.20
2019-02-26T13:45:07.752Z,5.13
2019-02-26T13:47:34.795Z,5.63
2019-02-26T13:50:01.849Z,6.40
2019-02-26T13:52:28.921Z,6.60
2019-02-26T13:54:55.993Z,6.60
2019-02-26T13:57:23.054Z,5.33
2019-02-26T13:59:50.234Z,6.60
2019-02-26T14:02:17.313Z,6.53
2019-02-26T14:04:44.507Z,6.10
2019-02-26T14:07:11.566Z,5.77
2019-02-26T14:09:38.639Z,6.30
2019-02-26T14:12:05.703Z,5.93
2019-02-26T14:14:32.785Z,6.13
2019-02-26T14:16:59.843Z,5.50
2019-02-26T14:19:26.905Z,6.67
2019-02-26T14:21:53.987Z,6.10
2019-02-26T14:24:21.044Z,5.60
2019-02-26T14:26:48.436Z,6.70
2019-02-26T14:29:15.492Z,5.93
2019-02-26T14:31:42.576Z,6.00
2019-02-26T14:34:09.641Z,5.70
2019-02-26T14:36:36.745Z,6.40
2019-02-26T14:39:04.760Z,7.50
2019-02-26T14:41:31.819Z,7.57
2019-02-26T14:43:58.906Z,6.40
2019-02-26T14:46:25.968Z,5.50
2019-02-26T14:48:53.038Z,6.13
2019-02-26T14:51:20.102Z,5.80
2019-02-26T14:53:49.075Z,6.00
2019-02-26T14:56:16.220Z,6.90
2019-02-26T14:58:43.290Z,6.57
2019-02-26T15:01:10.332Z,6.27
2019-02-26T15:03:37.406Z,6.27
2019-02-26T15:06:04.468Z,5.90
2019-02-26T15:08:31.522Z,6.30
2019-02-26T15:10:58.574Z,6.53
2019-02-26T15:13:25.663Z,7.07
2019-02-26T15:15:52.713Z,5.17
2019-02-26T15:18:19.753Z,5.57
2019-02-26T15:20:47.020Z,6.60
2019-02-26T15:23:14.066Z,5.13
2019-02-26T15:25:41.154Z,5.23
2019-02-26T15:28:08.250Z,5.63
2019-02-26T15:30:35.312Z,6.10
2019-02-26T15:33:10.818Z,5.80
2019-02-26T15:35:31.379Z,4.97
2019-02-26T15:37:58.476Z,5.57
2019-02-26T15:40:25.576Z,5.10
2019-02-26T15:42:56.079Z,5.13
2019-02-26T15:45:23.752Z,5.90
2019-02-26T15:47:50.786Z,4.97
2019-02-26T15:50:17.942Z,5.37
2019-02-26T15:52:45.028Z,4.87
2019-02-26T15:55:19.314Z,5.00
2019-02-26T15:57:46.741Z,4.50
2019-02-26T16:00:16.699Z,4.70
2019-02-26T16:02:43.778Z,5.20
2019-02-26T16:05:10.869Z,5.70
2019-02-26T16:07:37.940Z,5.20
2019-02-26T16:10:06.416Z,5.80
2019-02-26T16:12:34.014Z,5.30
2019-02-26T16:15:01.101Z,11.00
2019-02-26T16:17:28.160Z,14.43
2019-02-26T16:19:55.250Z,11.80
2019-02-26T16:22:22.343Z,11.40
2019-02-26T16:24:49.404Z,12.27
2019-02-26T16:27:16.607Z,22.40
2019-02-26T16:29:43.995Z,17.97
2019-02-26T16:32:11.068Z,13.63
2019-02-26T16:34:38.158Z,12.90
2019-02-26T16:37:07.133Z,12.53
2019-02-26T16:39:34.262Z,9.33
2019-02-26T16:42:01.418Z,10.13
2019-02-26T16:44:28.545Z,10.30
2019-02-26T16:46:55.619Z,11.80
2019-02-26T16:49:22.713Z,17.30
2019-02-26T16:51:49.847Z,9.80
2019-02-26T16:54:16.987Z,7.07
2019-02-26T16:56:44.076Z,8.03
2019-02-26T16:59:11.215Z,7.70
2019-02-26T17:01:40.253Z,6.47
2019-02-26T17:04:07.712Z,8.18
2019-02-26T17:06:35.352Z,7.72
2019-02-26T17:09:03.028Z,7.58
2019-02-26T17:11:30.132Z,7.62
2019-02-26T17:13:57.240Z,8.25
2019-02-26T17:16:24.337Z,6.50
2019-02-26T17:18:51.457Z,6.55
2019-02-26T17:21:18.602Z,7.62
2019-02-26T17:23:47.086Z,7.75
2019-02-26T17:26:14.910Z,6.78
2019-02-26T17:28:44.102Z,9.73
2019-02-26T17:31:11.034Z,8.53
2019-02-26T17:33:38.176Z,19.20
2019-02-26T17:36:05.337Z,19.77
2019-02-26T17:38:32.442Z,18.23
2019-02-26T17:40:59.530Z,13.75
2019-02-26T17:43:26.653Z,15.53
2019-02-26T17:45:53.758Z,15.15
2019-02-26T17:48:20.914Z,14.10
2019-02-26T17:50:48.085Z,19.62
2019-02-26T17:53:15.278Z,16.20
2019-02-26T17:55:42.433Z,14.18
2019-02-26T17:58:10.647Z,11.90
2019-02-26T18:00:40.136Z,12.65
2019-02-26T18:03:07.699Z,18.55
2019-02-26T18:05:40.564Z,14.38
2019-02-26T18:08:04.964Z,14.80
2019-02-26T18:10:32.332Z,14.10
2019-02-26T18:12:59.466Z,15.30
2019-02-26T18:15:26.923Z,15.25
2019-02-26T18:17:54.083Z,14.28
2019-02-26T18:20:21.340Z,14.73
2019-02-26T18:22:48.510Z,14.75
2019-02-26T18:25:16.142Z,15.15
2019-02-26T18:27:46.728Z,14.28
2019-02-26T18:30:16.322Z,15.43
2019-02-26T18:32:49.938Z,17.25
2019-02-26T18:35:12.613Z,14.35
2019-02-26T18:37:46.389Z,13.43
2019-02-26T18:40:09.794Z,15.40
2019-02-26T18:42:38.728Z,16.37
2019-02-26T18:45:09.386Z,17.50
2019-02-26T18:47:37.049Z,14.63
2019-02-26T18:50:04.322Z,15.88
2019-02-26T18:52:33.756Z,15.50
2019-02-26T18:55:01.387Z,14.70
2019-02-26T18:57:28.595Z,14.85
2019-02-26T18:59:57.747Z,16.10
2019-02-26T19:02:25.845Z,13.93
2019-02-26T19:04:53.531Z,13.88
2019-02-26T19:07:21.354Z,13.38
2019-02-26T19:09:49.324Z,13.32
2019-02-26T19:12:18.589Z,11.63
2019-02-26T19:14:46.149Z,11.53
2019-02-26T19:17:13.831Z,9.73
2019-02-26T19:19:42.069Z,12.30
2019-02-26T19:22:10.392Z,13.78
2019-02-26T19:24:39.233Z,11.30
2019-02-26T19:27:07.660Z,11.05
2019-02-26T19:29:35.808Z,11.10
2019-02-26T19:32:03.368Z,11.80
2019-02-26T19:34:31.082Z,11.35
2019-02-26T19:36:58.443Z,10.65
2019-02-26T19:39:25.966Z,11.97
2019-02-26T19:41:53.561Z,10.85
2019-02-26T19:44:20.932Z,11.95
2019-02-26T19:46:50.166Z,12.28
2019-02-26T19:49:17.972Z,13.93
2019-02-26T19:51:45.451Z,11.50
2019-02-26T19:54:12.665Z,10.05
2019-02-26T19:56:40.796Z,10.65
2019-02-26T19:59:08.567Z,8.65
2019-02-26T20:01:37.130Z,8.98
2019-02-26T20:04:04.894Z,8.33
2019-02-26T20:06:35.243Z,7.83
2019-02-26T20:09:05.817Z,7.03
2019-02-26T20:11:34.935Z,7.03
2019-02-26T20:14:04.849Z,6.90
2019-02-26T20:16:31.611Z,6.70
2019-02-26T20:19:01.349Z,6.20
2019-02-26T20:21:29.296Z,5.78
2019-02-26T20:23:56.632Z,6.70
2019-02-26T20:26:23.882Z,6.85
2019-02-26T20:28:51.223Z,6.08
2019-02-26T20:31:21.472Z,5.53
2019-02-26T20:33:49.708Z,5.60
2019-02-26T20:36:17.765Z,4.78
2019-02-26T20:38:45.878Z,4.80
2019-02-26T20:41:13.062Z,4.60
2019-02-26T20:43:40.291Z,5.47
2019-02-26T20:46:07.607Z,6.30
2019-02-26T20:48:36.756Z,5.95
2019-02-26T20:51:05.962Z,6.60
2019-02-26T20:53:33.149Z,8.10
2019-02-26T20:56:00.372Z,8.43
2019-02-26T20:58:27.635Z,7.58
2019-02-26T21:00:58.794Z,7.92
2019-02-26T21:03:26.366Z,6.85
2019-02-26T21:05:53.854Z,8.53
2019-02-26T21:08:20.984Z,8.30
2019-02-26T21:10:48.740Z,8.65
2019-02-26T21:13:16.143Z,8.75
2019-02-26T21:15:44.675Z,8.50
2019-02-26T21:18:12.330Z,7.85
2019-02-26T21:20:41.103Z,7.83
2019-02-26T21:23:08.905Z,7.37
2019-02-26T21:25:36.624Z,8.75
2019-02-26T21:28:03.739Z,16.20
2019-02-26T21:30:30.889Z,9.38
2019-02-26T21:32:58.698Z,8.33
2019-02-26T21:35:25.977Z,8.60
2019-02-26T21:37:53.080Z,9.45
2019-02-26T21:40:20.180Z,9.25
2019-02-26T21:42:47.308Z,8.85
2019-02-26T21:45:16.143Z,8.33
2019-02-26T21:47:43.469Z,6.85
2019-02-26T21:50:10.900Z,6.50
2019-02-26T21:52:42.103Z,6.53
2019-02-26T21:55:09.084Z,7.42
2019-02-26T21:57:36.199Z,7.67
2019-02-26T22:00:05.490Z,7.00
2019-02-26T22:02:32.876Z,6.70
2019-02-26T22:04:59.952Z,7.00
2019-02-26T22:07:27.034Z,6.92
2019-02-26T22:09:54.108Z,7.25
2019-02-26T22:12:21.858Z,7.53
2019-02-26T22:14:50.124Z,6.35
2019-02-26T22:17:17.178Z,6.95
2019-02-26T22:19:44.239Z,5.92
2019-02-26T22:22:11.299Z,6.33
2019-02-26T22:24:40.536Z,6.70
2019-02-26T22:27:07.284Z,6.67
2019-02-26T22:29:36.323Z,7.37
2019-02-26T22:32:03.242Z,7.80
2019-02-26T22:34:30.318Z,9.75
2019-02-26T22:36:57.350Z,11.55
2019-02-26T22:39:24.381Z,10.00
2019-02-26T22:41:51.408Z,7.53
2019-02-26T22:44:18.707Z,8.35
2019-02-26T22:46:47.418Z,6.87
2019-02-26T22:49:14.469Z,7.10
2019-02-26T22:51:41.497Z,6.60
2019-02-26T22:54:09.859Z,7.17
2019-02-26T22:56:37.396Z,6.97
2019-02-26T22:59:07.780Z,6.45
2019-02-26T23:01:37.226Z,6.92
2019-02-26T23:04:04.339Z,8.40
2019-02-26T23:06:31.748Z,7.17
2019-02-26T23:08:59.444Z,7.58
2019-02-26T23:11:31.705Z,7.85
2019-02-26T23:13:56.279Z,6.95
2019-02-26T23:16:24.606Z,7.22
2019-02-26T23:19:12.967Z,7.83
2019-02-26T23:21:41.401Z,10.43
2019-02-26T23:24:08.629Z,8.80
2019-02-26T23:26:35.689Z,9.33
2019-02-26T23:29:02.730Z,8.25
2019-02-26T23:31:32.723Z,8.40
2019-02-26T23:33:58.833Z,8.35
2019-02-26T23:36:28.591Z,7.15
2019-02-26T23:38:54.862Z,7.40
2019-02-26T23:41:21.929Z,6.90
2019-02-26T23:43:48.993Z,7.87
2019-02-26T23:46:16.043Z,7.08
2019-02-26T23:48:43.085Z,7.10
2019-02-26T23:51:10.128Z,7.47
2019-02-26T23:53:37.175Z,8.15
2019-02-26T23:56:04.217Z,7.97
2019-02-26T23:58:31.669Z,7.30
